sensor_id;sensor_type;location;lat;lon;timestamp;temperature;humidity
17726;DHT22;8983;53.156;17.960;2023-07-24T00:00:41;18.70;99.90
17726;DHT22;8983;53.156;17.960;2023-07-24T00:03:09;18.70;99.90
17726;DHT22;8983;53.156;17.960;2023-07-24T00:05:37;18.70;99.90
17726;DHT22;8983;53.156;17.960;2023-07-24T00:08:05;18.70;99.90
17726;DHT22;8983;53.156;17.960;2023-07-24T00:10:35;18.60;99.90
17726;DHT22;8983;53.156;17.960;2023-07-24T00:13:03;18.50;99.90
17726;DHT22;8983;53.156;17.960;2023-07-24T00:15:32;18.40;99.90
17726;DHT22;8983;53.156;17.960;2023-07-24T00:18:01;18.50;99.90
17726;DHT22;8983;53.156;17.960;2023-07-24T00:20:29;18.40;99.90
17726;DHT22;8983;53.156;17.960;2023-07-24T00:22:57;18.40;99.90
17726;DHT22;8983;53.156;17.960;2023-07-24T00:27:55;18.40;99.90
17726;DHT22;8983;53.156;17.960;2023-07-24T00:30:23;18.30;99.90
17726;DHT22;8983;53.156;17.960;2023-07-24T00:32:51;18.30;99.90
17726;DHT22;8983;53.156;17.960;2023-07-24T00:35:19;18.30;99.90
17726;DHT22;8983;53.156;17.960;2023-07-24T00:37:47;18.20;99.90
17726;DHT22;8983;53.156;17.960;2023-07-24T00:40:15;18.30;99.90
17726;DHT22;8983;53.156;17.960;2023-07-24T00:42:47;18.20;99.90
17726;DHT22;8983;53.156;17.960;2023-07-24T00:45:16;18.20;99.90
17726;DHT22;8983;53.156;17.960;2023-07-24T00:47:45;18.10;99.90
17726;DHT22;8983;53.156;17.960;2023-07-24T00:50:13;18.10;99.90
17726;DHT22;8983;53.156;17.960;2023-07-24T00:52:42;18.10;99.90
17726;DHT22;8983;53.156;17.960;2023-07-24T00:55:11;18.10;99.90
17726;DHT22;8983;53.156;17.960;2023-07-24T00:57:40;18.00;99.90
17726;DHT22;8983;53.156;17.960;2023-07-24T01:00:10;18.00;99.90
17726;DHT22;8983;53.156;17.960;2023-07-24T01:02:39;18.00;99.90
17726;DHT22;8983;53.156;17.960;2023-07-24T01:05:08;17.80;99.90
17726;DHT22;8983;53.156;17.960;2023-07-24T01:07:36;17.80;99.90
17726;DHT22;8983;53.156;17.960;2023-07-24T01:10:05;18.00;99.90
17726;DHT22;8983;53.156;17.960;2023-07-24T01:12:39;18.00;99.90
17726;DHT22;8983;53.156;17.960;2023-07-24T01:15:10;17.90;99.90
17726;DHT22;8983;53.156;17.960;2023-07-24T01:17:46;17.90;99.90
17726;DHT22;8983;53.156;17.960;2023-07-24T01:20:17;17.90;99.90
17726;DHT22;8983;53.156;17.960;2023-07-24T01:22:54;17.90;99.90
17726;DHT22;8983;53.156;17.960;2023-07-24T01:25:31;17.90;99.90
17726;DHT22;8983;53.156;17.960;2023-07-24T01:28:06;17.80;99.90
17726;DHT22;8983;53.156;17.960;2023-07-24T01:30:35;17.80;99.90
17726;DHT22;8983;53.156;17.960;2023-07-24T01:33:03;17.70;99.90
17726;DHT22;8983;53.156;17.960;2023-07-24T01:35:32;17.80;99.90
17726;DHT22;8983;53.156;17.960;2023-07-24T01:38:01;17.70;99.90
17726;DHT22;8983;53.156;17.960;2023-07-24T01:40:30;17.70;99.90
17726;DHT22;8983;53.156;17.960;2023-07-24T01:42:59;17.60;99.90
17726;DHT22;8983;53.156;17.960;2023-07-24T01:45:28;17.60;99.90
17726;DHT22;8983;53.156;17.960;2023-07-24T01:47:56;17.60;99.90
17726;DHT22;8983;53.156;17.960;2023-07-24T01:50:24;17.60;99.90
17726;DHT22;8983;53.156;17.960;2023-07-24T01:52:52;17.50;99.90
17726;DHT22;8983;53.156;17.960;2023-07-24T01:55:21;17.50;99.90
17726;DHT22;8983;53.156;17.960;2023-07-24T01:57:49;17.50;99.90
17726;DHT22;8983;53.156;17.960;2023-07-24T02:00:17;17.50;99.90
17726;DHT22;8983;53.156;17.960;2023-07-24T02:02:46;17.50;99.90
17726;DHT22;8983;53.156;17.960;2023-07-24T02:05:15;17.50;99.90
17726;DHT22;8983;53.156;17.960;2023-07-24T02:07:43;17.40;99.90
17726;DHT22;8983;53.156;17.960;2023-07-24T02:10:11;17.40;99.90
17726;DHT22;8983;53.156;17.960;2023-07-24T02:12:39;17.40;99.90
17726;DHT22;8983;53.156;17.960;2023-07-24T02:15:08;17.50;99.90
17726;DHT22;8983;53.156;17.960;2023-07-24T02:17:36;17.30;99.90
17726;DHT22;8983;53.156;17.960;2023-07-24T02:20:08;17.30;99.90
17726;DHT22;8983;53.156;17.960;2023-07-24T02:22:36;17.30;99.90
17726;DHT22;8983;53.156;17.960;2023-07-24T02:25:04;17.40;99.90
17726;DHT22;8983;53.156;17.960;2023-07-24T02:27:33;17.20;99.90
17726;DHT22;8983;53.156;17.960;2023-07-24T02:30:02;17.20;99.90
17726;DHT22;8983;53.156;17.960;2023-07-24T02:32:30;17.20;99.90
17726;DHT22;8983;53.156;17.960;2023-07-24T02:34:59;17.20;99.90
17726;DHT22;8983;53.156;17.960;2023-07-24T02:37:28;17.20;99.90
17726;DHT22;8983;53.156;17.960;2023-07-24T02:39:56;17.30;99.90
17726;DHT22;8983;53.156;17.960;2023-07-24T02:42:24;17.10;99.90
17726;DHT22;8983;53.156;17.960;2023-07-24T02:44:52;17.10;99.90
17726;DHT22;8983;53.156;17.960;2023-07-24T02:47:20;17.10;99.90
17726;DHT22;8983;53.156;17.960;2023-07-24T02:49:49;17.10;99.90
17726;DHT22;8983;53.156;17.960;2023-07-24T02:52:17;17.10;99.90
17726;DHT22;8983;53.156;17.960;2023-07-24T02:54:46;17.10;99.90
17726;DHT22;8983;53.156;17.960;2023-07-24T02:57:14;17.10;99.90
17726;DHT22;8983;53.156;17.960;2023-07-24T02:59:42;17.10;99.90
17726;DHT22;8983;53.156;17.960;2023-07-24T03:02:10;17.10;99.90
17726;DHT22;8983;53.156;17.960;2023-07-24T03:04:38;17.10;99.90
17726;DHT22;8983;53.156;17.960;2023-07-24T03:07:06;17.10;99.90
17726;DHT22;8983;53.156;17.960;2023-07-24T03:09:34;17.10;99.90
17726;DHT22;8983;53.156;17.960;2023-07-24T03:12:05;17.10;99.90
17726;DHT22;8983;53.156;17.960;2023-07-24T03:14:33;17.10;99.90
17726;DHT22;8983;53.156;17.960;2023-07-24T03:17:01;17.10;99.90
17726;DHT22;8983;53.156;17.960;2023-07-24T03:19:29;17.10;99.90
17726;DHT22;8983;53.156;17.960;2023-07-24T03:21:57;17.20;99.90
17726;DHT22;8983;53.156;17.960;2023-07-24T03:24:25;17.20;99.90
17726;DHT22;8983;53.156;17.960;2023-07-24T03:26:54;17.20;99.90
17726;DHT22;8983;53.156;17.960;2023-07-24T03:29:23;17.30;99.90
17726;DHT22;8983;53.156;17.960;2023-07-24T03:31:51;17.30;99.90
17726;DHT22;8983;53.156;17.960;2023-07-24T03:34:20;17.30;99.90
17726;DHT22;8983;53.156;17.960;2023-07-24T03:36:48;17.30;99.90
17726;DHT22;8983;53.156;17.960;2023-07-24T03:39:16;17.40;99.90
17726;DHT22;8983;53.156;17.960;2023-07-24T03:41:44;17.30;99.90
17726;DHT22;8983;53.156;17.960;2023-07-24T03:44:12;17.40;99.90
17726;DHT22;8983;53.156;17.960;2023-07-24T03:46:41;17.30;99.90
17726;DHT22;8983;53.156;17.960;2023-07-24T03:49:09;17.40;99.90
17726;DHT22;8983;53.156;17.960;2023-07-24T03:51:37;17.60;99.90
17726;DHT22;8983;53.156;17.960;2023-07-24T03:54:05;17.50;99.90
17726;DHT22;8983;53.156;17.960;2023-07-24T03:56:33;17.50;99.90
17726;DHT22;8983;53.156;17.960;2023-07-24T03:59:01;17.50;99.90
17726;DHT22;8983;53.156;17.960;2023-07-24T04:01:29;17.50;99.90
17726;DHT22;8983;53.156;17.960;2023-07-24T04:03:59;17.50;99.90
17726;DHT22;8983;53.156;17.960;2023-07-24T04:06:28;17.40;99.90
17726;DHT22;8983;53.156;17.960;2023-07-24T04:08:57;17.60;99.90
17726;DHT22;8983;53.156;17.960;2023-07-24T04:11:25;17.60;99.90
17726;DHT22;8983;53.156;17.960;2023-07-24T04:13:53;17.60;99.90
17726;DHT22;8983;53.156;17.960;2023-07-24T04:16:21;17.70;99.90
17726;DHT22;8983;53.156;17.960;2023-07-24T04:18:51;17.60;99.90
17726;DHT22;8983;53.156;17.960;2023-07-24T04:21:22;17.70;99.90
17726;DHT22;8983;53.156;17.960;2023-07-24T04:23:50;17.70;99.90
17726;DHT22;8983;53.156;17.960;2023-07-24T04:26:18;17.70;99.90
17726;DHT22;8983;53.156;17.960;2023-07-24T04:28:46;17.80;99.90
17726;DHT22;8983;53.156;17.960;2023-07-24T04:31:14;17.90;99.90
17726;DHT22;8983;53.156;17.960;2023-07-24T04:33:42;17.90;99.90
17726;DHT22;8983;53.156;17.960;2023-07-24T04:36:10;17.90;99.90
17726;DHT22;8983;53.156;17.960;2023-07-24T04:38:43;18.00;99.90
17726;DHT22;8983;53.156;17.960;2023-07-24T04:41:13;18.00;99.90
17726;DHT22;8983;53.156;17.960;2023-07-24T04:43:41;18.00;99.90
17726;DHT22;8983;53.156;17.960;2023-07-24T04:46:09;18.10;99.90
17726;DHT22;8983;53.156;17.960;2023-07-24T04:48:37;18.00;99.90
17726;DHT22;8983;53.156;17.960;2023-07-24T04:51:05;18.20;99.90
17726;DHT22;8983;53.156;17.960;2023-07-24T04:53:33;18.10;99.90
17726;DHT22;8983;53.156;17.960;2023-07-24T04:56:02;18.20;99.90
17726;DHT22;8983;53.156;17.960;2023-07-24T04:58:30;18.30;99.90
17726;DHT22;8983;53.156;17.960;2023-07-24T05:01:02;18.30;99.90
17726;DHT22;8983;53.156;17.960;2023-07-24T05:03:30;18.40;99.90
17726;DHT22;8983;53.156;17.960;2023-07-24T05:05:58;18.30;99.90
17726;DHT22;8983;53.156;17.960;2023-07-24T05:08:26;18.30;99.90
17726;DHT22;8983;53.156;17.960;2023-07-24T05:10:55;18.50;99.90
17726;DHT22;8983;53.156;17.960;2023-07-24T05:13:25;18.50;99.90
17726;DHT22;8983;53.156;17.960;2023-07-24T05:15:53;18.60;99.90
17726;DHT22;8983;53.156;17.960;2023-07-24T05:18:21;18.70;99.90
17726;DHT22;8983;53.156;17.960;2023-07-24T05:20:49;18.70;99.90
17726;DHT22;8983;53.156;17.960;2023-07-24T05:23:18;18.70;99.90
17726;DHT22;8983;53.156;17.960;2023-07-24T05:25:46;18.80;99.90
17726;DHT22;8983;53.156;17.960;2023-07-24T05:28:14;18.90;99.90
17726;DHT22;8983;53.156;17.960;2023-07-24T05:30:44;18.90;99.90
17726;DHT22;8983;53.156;17.960;2023-07-24T05:33:12;18.90;99.90
17726;DHT22;8983;53.156;17.960;2023-07-24T05:35:40;19.10;99.90
17726;DHT22;8983;53.156;17.960;2023-07-24T05:38:09;19.10;99.90
17726;DHT22;8983;53.156;17.960;2023-07-24T05:40:37;19.20;99.90
17726;DHT22;8983;53.156;17.960;2023-07-24T05:43:05;19.20;99.90
17726;DHT22;8983;53.156;17.960;2023-07-24T05:45:34;19.20;99.90
17726;DHT22;8983;53.156;17.960;2023-07-24T05:48:03;19.30;99.90
17726;DHT22;8983;53.156;17.960;2023-07-24T05:50:32;19.30;99.90
17726;DHT22;8983;53.156;17.960;2023-07-24T05:53:00;19.30;99.90
17726;DHT22;8983;53.156;17.960;2023-07-24T05:55:28;19.30;99.90
17726;DHT22;8983;53.156;17.960;2023-07-24T05:57:56;19.30;99.90
17726;DHT22;8983;53.156;17.960;2023-07-24T06:00:24;19.20;99.90
17726;DHT22;8983;53.156;17.960;2023-07-24T06:02:53;19.20;99.90
17726;DHT22;8983;53.156;17.960;2023-07-24T06:05:24;19.00;99.90
17726;DHT22;8983;53.156;17.960;2023-07-24T06:07:52;18.90;99.90
17726;DHT22;8983;53.156;17.960;2023-07-24T06:10:20;18.80;99.90
17726;DHT22;8983;53.156;17.960;2023-07-24T06:12:48;18.80;99.90
17726;DHT22;8983;53.156;17.960;2023-07-24T06:15:16;18.70;99.90
17726;DHT22;8983;53.156;17.960;2023-07-24T06:17:44;18.70;99.90
17726;DHT22;8983;53.156;17.960;2023-07-24T06:20:12;18.80;99.90
17726;DHT22;8983;53.156;17.960;2023-07-24T06:22:42;18.80;99.90
17726;DHT22;8983;53.156;17.960;2023-07-24T06:25:10;18.80;99.90
17726;DHT22;8983;53.156;17.960;2023-07-24T06:27:38;18.70;99.90
17726;DHT22;8983;53.156;17.960;2023-07-24T06:30:07;18.90;99.90
17726;DHT22;8983;53.156;17.960;2023-07-24T06:32:42;19.00;99.90
17726;DHT22;8983;53.156;17.960;2023-07-24T06:35:10;19.00;99.90
17726;DHT22;8983;53.156;17.960;2023-07-24T06:37:38;19.00;99.90
17726;DHT22;8983;53.156;17.960;2023-07-24T06:40:08;19.00;99.90
17726;DHT22;8983;53.156;17.960;2023-07-24T06:42:37;19.00;99.90
17726;DHT22;8983;53.156;17.960;2023-07-24T06:45:06;19.00;99.90
17726;DHT22;8983;53.156;17.960;2023-07-24T06:47:34;19.00;99.90
17726;DHT22;8983;53.156;17.960;2023-07-24T06:50:03;19.10;99.90
17726;DHT22;8983;53.156;17.960;2023-07-24T06:52:31;19.20;99.90
17726;DHT22;8983;53.156;17.960;2023-07-24T06:55:00;19.20;99.90
17726;DHT22;8983;53.156;17.960;2023-07-24T06:57:29;19.40;99.90
17726;DHT22;8983;53.156;17.960;2023-07-24T06:59:57;19.50;99.90
17726;DHT22;8983;53.156;17.960;2023-07-24T07:02:25;19.50;99.90
17726;DHT22;8983;53.156;17.960;2023-07-24T07:04:55;19.60;99.90
17726;DHT22;8983;53.156;17.960;2023-07-24T07:07:23;19.50;99.90
17726;DHT22;8983;53.156;17.960;2023-07-24T07:09:51;19.80;99.90
17726;DHT22;8983;53.156;17.960;2023-07-24T07:12:19;19.80;99.90
17726;DHT22;8983;53.156;17.960;2023-07-24T07:14:49;19.80;99.90
17726;DHT22;8983;53.156;17.960;2023-07-24T07:17:17;19.90;99.90
17726;DHT22;8983;53.156;17.960;2023-07-24T07:19:45;19.90;99.90
17726;DHT22;8983;53.156;17.960;2023-07-24T07:22:13;19.90;99.90
17726;DHT22;8983;53.156;17.960;2023-07-24T07:24:42;19.90;99.90
17726;DHT22;8983;53.156;17.960;2023-07-24T07:27:13;19.90;99.90
17726;DHT22;8983;53.156;17.960;2023-07-24T07:29:43;20.00;99.90
17726;DHT22;8983;53.156;17.960;2023-07-24T07:32:13;20.00;99.90
17726;DHT22;8983;53.156;17.960;2023-07-24T07:34:41;19.90;99.90
17726;DHT22;8983;53.156;17.960;2023-07-24T07:37:09;20.10;99.90
17726;DHT22;8983;53.156;17.960;2023-07-24T07:39:37;20.20;99.90
17726;DHT22;8983;53.156;17.960;2023-07-24T07:42:05;20.30;99.90
17726;DHT22;8983;53.156;17.960;2023-07-24T07:44:44;20.30;99.90
17726;DHT22;8983;53.156;17.960;2023-07-24T07:47:14;20.20;99.90
17726;DHT22;8983;53.156;17.960;2023-07-24T07:49:42;20.40;99.90
17726;DHT22;8983;53.156;17.960;2023-07-24T07:52:11;20.40;99.90
17726;DHT22;8983;53.156;17.960;2023-07-24T07:54:40;20.40;99.90
17726;DHT22;8983;53.156;17.960;2023-07-24T07:57:08;20.50;99.90
17726;DHT22;8983;53.156;17.960;2023-07-24T07:59:36;20.50;99.90
17726;DHT22;8983;53.156;17.960;2023-07-24T08:02:04;20.50;99.90
17726;DHT22;8983;53.156;17.960;2023-07-24T08:04:34;20.60;99.90
17726;DHT22;8983;53.156;17.960;2023-07-24T08:07:02;20.60;99.90
17726;DHT22;8983;53.156;17.960;2023-07-24T08:09:30;20.70;99.90
17726;DHT22;8983;53.156;17.960;2023-07-24T08:11:59;20.70;99.90
17726;DHT22;8983;53.156;17.960;2023-07-24T08:14:27;20.70;99.90
17726;DHT22;8983;53.156;17.960;2023-07-24T08:16:55;20.70;99.90
17726;DHT22;8983;53.156;17.960;2023-07-24T08:19:23;20.80;99.90
17726;DHT22;8983;53.156;17.960;2023-07-24T08:21:56;20.80;99.90
17726;DHT22;8983;53.156;17.960;2023-07-24T08:24:24;21.00;99.90
17726;DHT22;8983;53.156;17.960;2023-07-24T08:26:53;21.00;99.90
17726;DHT22;8983;53.156;17.960;2023-07-24T08:29:21;21.20;99.90
17726;DHT22;8983;53.156;17.960;2023-07-24T08:31:49;21.10;99.90
17726;DHT22;8983;53.156;17.960;2023-07-24T08:34:17;21.40;99.90
17726;DHT22;8983;53.156;17.960;2023-07-24T08:36:45;21.50;99.90
17726;DHT22;8983;53.156;17.960;2023-07-24T08:39:15;21.60;99.90
17726;DHT22;8983;53.156;17.960;2023-07-24T08:41:43;21.70;99.90
17726;DHT22;8983;53.156;17.960;2023-07-24T08:44:11;21.80;99.90
17726;DHT22;8983;53.156;17.960;2023-07-24T08:46:39;21.90;99.90
17726;DHT22;8983;53.156;17.960;2023-07-24T08:49:11;22.00;99.90
17726;DHT22;8983;53.156;17.960;2023-07-24T08:51:40;22.10;99.90
17726;DHT22;8983;53.156;17.960;2023-07-24T08:54:08;22.20;99.90
17726;DHT22;8983;53.156;17.960;2023-07-24T08:56:38;22.30;99.90
17726;DHT22;8983;53.156;17.960;2023-07-24T08:59:08;22.30;99.90
17726;DHT22;8983;53.156;17.960;2023-07-24T09:01:36;22.40;99.90
17726;DHT22;8983;53.156;17.960;2023-07-24T09:04:04;22.50;99.90
17726;DHT22;8983;53.156;17.960;2023-07-24T09:06:32;22.50;99.90
17726;DHT22;8983;53.156;17.960;2023-07-24T09:09:01;22.60;99.90
17726;DHT22;8983;53.156;17.960;2023-07-24T09:11:29;22.60;99.90
17726;DHT22;8983;53.156;17.960;2023-07-24T09:13:59;22.60;99.90
17726;DHT22;8983;53.156;17.960;2023-07-24T09:16:27;22.60;99.90
17726;DHT22;8983;53.156;17.960;2023-07-24T09:18:56;22.60;99.90
17726;DHT22;8983;53.156;17.960;2023-07-24T09:21:36;22.70;99.90
17726;DHT22;8983;53.156;17.960;2023-07-24T09:24:12;22.70;99.90
17726;DHT22;8983;53.156;17.960;2023-07-24T09:26:48;22.80;99.90
17726;DHT22;8983;53.156;17.960;2023-07-24T09:29:18;22.70;99.90
17726;DHT22;8983;53.156;17.960;2023-07-24T09:31:46;22.90;99.90
17726;DHT22;8983;53.156;17.960;2023-07-24T09:34:16;22.90;99.90
17726;DHT22;8983;53.156;17.960;2023-07-24T09:36:44;23.20;99.90
17726;DHT22;8983;53.156;17.960;2023-07-24T09:39:12;23.20;99.90
17726;DHT22;8983;53.156;17.960;2023-07-24T09:41:40;23.30;99.90
17726;DHT22;8983;53.156;17.960;2023-07-24T09:44:12;23.50;99.90
17726;DHT22;8983;53.156;17.960;2023-07-24T09:46:43;23.60;99.90
17726;DHT22;8983;53.156;17.960;2023-07-24T09:49:31;23.70;99.90
17726;DHT22;8983;53.156;17.960;2023-07-24T09:52:00;23.80;99.90
17726;DHT22;8983;53.156;17.960;2023-07-24T09:54:38;24.00;99.90
17726;DHT22;8983;53.156;17.960;2023-07-24T09:57:13;24.10;99.90
17726;DHT22;8983;53.156;17.960;2023-07-24T09:59:48;24.20;99.90
17726;DHT22;8983;53.156;17.960;2023-07-24T10:02:19;24.20;99.90
17726;DHT22;8983;53.156;17.960;2023-07-24T10:04:47;24.10;99.90
17726;DHT22;8983;53.156;17.960;2023-07-24T10:07:17;24.10;99.90
17726;DHT22;8983;53.156;17.960;2023-07-24T10:09:49;24.20;99.90
17726;DHT22;8983;53.156;17.960;2023-07-24T10:12:18;24.40;99.90
17726;DHT22;8983;53.156;17.960;2023-07-24T10:14:46;24.50;99.90
17726;DHT22;8983;53.156;17.960;2023-07-24T10:17:34;24.50;99.90
17726;DHT22;8983;53.156;17.960;2023-07-24T10:20:04;24.60;99.90
17726;DHT22;8983;53.156;17.960;2023-07-24T10:22:33;24.70;99.90
17726;DHT22;8983;53.156;17.960;2023-07-24T10:25:02;24.80;99.90
17726;DHT22;8983;53.156;17.960;2023-07-24T10:27:31;24.90;99.90
17726;DHT22;8983;53.156;17.960;2023-07-24T10:30:00;24.90;99.90
17726;DHT22;8983;53.156;17.960;2023-07-24T10:32:50;25.10;99.90
17726;DHT22;8983;53.156;17.960;2023-07-24T10:35:22;25.00;99.90
17726;DHT22;8983;53.156;17.960;2023-07-24T10:37:59;24.90;99.90
17726;DHT22;8983;53.156;17.960;2023-07-24T10:40:27;24.90;99.90
17726;DHT22;8983;53.156;17.960;2023-07-24T10:43:00;24.80;99.90
17726;DHT22;8983;53.156;17.960;2023-07-24T10:45:39;24.80;99.90
17726;DHT22;8983;53.156;17.960;2023-07-24T10:48:08;24.90;99.90
17726;DHT22;8983;53.156;17.960;2023-07-24T10:50:39;25.10;99.90
17726;DHT22;8983;53.156;17.960;2023-07-24T10:53:08;25.20;99.90
17726;DHT22;8983;53.156;17.960;2023-07-24T10:55:37;25.40;99.90
17726;DHT22;8983;53.156;17.960;2023-07-24T10:58:07;25.40;99.90
17726;DHT22;8983;53.156;17.960;2023-07-24T11:00:35;25.60;99.90
17726;DHT22;8983;53.156;17.960;2023-07-24T11:03:03;25.60;99.90
17726;DHT22;8983;53.156;17.960;2023-07-24T11:05:33;25.70;99.90
17726;DHT22;8983;53.156;17.960;2023-07-24T11:08:01;25.70;99.90
17726;DHT22;8983;53.156;17.960;2023-07-24T11:10:36;25.80;99.80
17726;DHT22;8983;53.156;17.960;2023-07-24T11:13:10;25.90;99.80
17726;DHT22;8983;53.156;17.960;2023-07-24T11:15:38;26.10;99.90
17726;DHT22;8983;53.156;17.960;2023-07-24T11:18:06;26.20;99.60
17726;DHT22;8983;53.156;17.960;2023-07-24T11:20:38;26.40;98.80
17726;DHT22;8983;53.156;17.960;2023-07-24T11:23:10;26.80;98.50
17726;DHT22;8983;53.156;17.960;2023-07-24T11:25:39;27.30;97.20
17726;DHT22;8983;53.156;17.960;2023-07-24T11:28:10;27.60;96.00
17726;DHT22;8983;53.156;17.960;2023-07-24T11:30:39;27.70;95.10
17726;DHT22;8983;53.156;17.960;2023-07-24T11:33:09;27.80;94.40
17726;DHT22;8983;53.156;17.960;2023-07-24T11:38:09;28.10;92.60
17726;DHT22;8983;53.156;17.960;2023-07-24T11:40:40;28.10;92.40
17726;DHT22;8983;53.156;17.960;2023-07-24T11:43:15;28.00;92.10
17726;DHT22;8983;53.156;17.960;2023-07-24T11:45:45;27.80;91.70
17726;DHT22;8983;53.156;17.960;2023-07-24T11:48:13;27.50;91.50
17726;DHT22;8983;53.156;17.960;2023-07-24T11:50:45;27.30;91.50
17726;DHT22;8983;53.156;17.960;2023-07-24T11:53:21;27.10;91.10
17726;DHT22;8983;53.156;17.960;2023-07-24T11:55:50;27.00;90.90
17726;DHT22;8983;53.156;17.960;2023-07-24T11:58:19;27.20;91.20
17726;DHT22;8983;53.156;17.960;2023-07-24T12:00:49;27.50;90.90
17726;DHT22;8983;53.156;17.960;2023-07-24T12:03:19;28.00;90.30
17726;DHT22;8983;53.156;17.960;2023-07-24T12:05:50;28.40;89.10
17726;DHT22;8983;53.156;17.960;2023-07-24T12:08:20;28.80;87.30
17726;DHT22;8983;53.156;17.960;2023-07-24T12:10:50;29.00;86.40
17726;DHT22;8983;53.156;17.960;2023-07-24T12:13:18;28.90;85.70
17726;DHT22;8983;53.156;17.960;2023-07-24T12:15:47;28.80;84.30
17726;DHT22;8983;53.156;17.960;2023-07-24T12:18:16;28.50;83.60
17726;DHT22;8983;53.156;17.960;2023-07-24T12:20:44;28.60;83.50
17726;DHT22;8983;53.156;17.960;2023-07-24T12:23:13;28.60;82.60
17726;DHT22;8983;53.156;17.960;2023-07-24T12:25:42;28.60;82.10
17726;DHT22;8983;53.156;17.960;2023-07-24T12:28:10;28.60;81.40
17726;DHT22;8983;53.156;17.960;2023-07-24T12:30:39;28.40;81.20
17726;DHT22;8983;53.156;17.960;2023-07-24T12:33:07;28.30;81.20
17726;DHT22;8983;53.156;17.960;2023-07-24T12:35:35;28.20;81.50
17726;DHT22;8983;53.156;17.960;2023-07-24T12:38:03;28.20;81.50
17726;DHT22;8983;53.156;17.960;2023-07-24T12:40:33;28.20;81.60
17726;DHT22;8983;53.156;17.960;2023-07-24T12:43:01;28.10;81.30
17726;DHT22;8983;53.156;17.960;2023-07-24T12:45:29;28.00;81.20
17726;DHT22;8983;53.156;17.960;2023-07-24T12:47:57;27.80;81.60
17726;DHT22;8983;53.156;17.960;2023-07-24T12:50:25;27.70;81.90
17726;DHT22;8983;53.156;17.960;2023-07-24T12:52:53;27.70;81.80
17726;DHT22;8983;53.156;17.960;2023-07-24T12:55:21;28.00;81.80
17726;DHT22;8983;53.156;17.960;2023-07-24T12:57:51;28.50;81.00
17726;DHT22;8983;53.156;17.960;2023-07-24T13:00:18;29.00;79.60
17726;DHT22;8983;53.156;17.960;2023-07-24T13:02:47;29.50;78.50
17726;DHT22;8983;53.156;17.960;2023-07-24T13:05:15;29.80;76.20
17726;DHT22;8983;53.156;17.960;2023-07-24T13:07:43;29.90;74.80
17726;DHT22;8983;53.156;17.960;2023-07-24T13:10:13;29.90;74.10
17726;DHT22;8983;53.156;17.960;2023-07-24T13:12:41;29.90;74.40
17726;DHT22;8983;53.156;17.960;2023-07-24T13:15:10;30.10;74.20
17726;DHT22;8983;53.156;17.960;2023-07-24T13:17:38;30.20;74.30
17726;DHT22;8983;53.156;17.960;2023-07-24T13:20:08;30.40;72.40
17726;DHT22;8983;53.156;17.960;2023-07-24T13:22:36;30.40;71.00
17726;DHT22;8983;53.156;17.960;2023-07-24T13:25:04;30.20;70.20
17726;DHT22;8983;53.156;17.960;2023-07-24T13:27:33;30.10;70.40
17726;DHT22;8983;53.156;17.960;2023-07-24T13:30:01;30.10;70.30
17726;DHT22;8983;53.156;17.960;2023-07-24T13:32:30;30.20;69.90
17726;DHT22;8983;53.156;17.960;2023-07-24T13:34:58;30.30;69.50
17726;DHT22;8983;53.156;17.960;2023-07-24T13:37:26;30.30;69.40
17726;DHT22;8983;53.156;17.960;2023-07-24T13:39:54;30.30;69.30
17726;DHT22;8983;53.156;17.960;2023-07-24T13:42:22;30.30;69.30
17726;DHT22;8983;53.156;17.960;2023-07-24T13:44:50;30.30;69.00
17726;DHT22;8983;53.156;17.960;2023-07-24T13:47:18;30.20;69.30
17726;DHT22;8983;53.156;17.960;2023-07-24T13:49:49;30.00;69.40
17726;DHT22;8983;53.156;17.960;2023-07-24T13:52:17;29.90;69.30
17726;DHT22;8983;53.156;17.960;2023-07-24T13:54:45;29.80;69.40
17726;DHT22;8983;53.156;17.960;2023-07-24T13:57:13;29.90;69.50
17726;DHT22;8983;53.156;17.960;2023-07-24T13:59:41;30.10;69.40
17726;DHT22;8983;53.156;17.960;2023-07-24T14:02:09;30.40;68.60
17726;DHT22;8983;53.156;17.960;2023-07-24T14:04:39;30.60;67.70
17726;DHT22;8983;53.156;17.960;2023-07-24T14:07:08;30.40;68.20
17726;DHT22;8983;53.156;17.960;2023-07-24T14:09:39;30.50;67.60
17726;DHT22;8983;53.156;17.960;2023-07-24T14:12:09;30.90;66.60
17726;DHT22;8983;53.156;17.960;2023-07-24T14:14:37;31.20;66.00
17726;DHT22;8983;53.156;17.960;2023-07-24T14:17:05;31.60;65.50
17726;DHT22;8983;53.156;17.960;2023-07-24T14:19:33;31.90;64.10
17726;DHT22;8983;53.156;17.960;2023-07-24T14:22:01;32.00;62.60
17726;DHT22;8983;53.156;17.960;2023-07-24T14:24:31;32.00;61.70
17726;DHT22;8983;53.156;17.960;2023-07-24T14:26:59;31.90;61.40
17726;DHT22;8983;53.156;17.960;2023-07-24T14:29:27;31.80;61.90
17726;DHT22;8983;53.156;17.960;2023-07-24T14:31:55;31.70;61.70
17726;DHT22;8983;53.156;17.960;2023-07-24T14:34:24;31.60;61.90
17726;DHT22;8983;53.156;17.960;2023-07-24T14:36:52;31.50;61.90
17726;DHT22;8983;53.156;17.960;2023-07-24T14:39:20;31.30;61.70
17726;DHT22;8983;53.156;17.960;2023-07-24T14:41:50;31.00;61.80
17726;DHT22;8983;53.156;17.960;2023-07-24T14:44:18;30.70;62.20
17726;DHT22;8983;53.156;17.960;2023-07-24T14:46:46;30.40;63.00
17726;DHT22;8983;53.156;17.960;2023-07-24T14:49:14;30.40;63.50
17726;DHT22;8983;53.156;17.960;2023-07-24T14:51:42;30.50;63.30
17726;DHT22;8983;53.156;17.960;2023-07-24T14:54:10;30.70;62.90
17726;DHT22;8983;53.156;17.960;2023-07-24T14:56:38;30.90;62.70
17726;DHT22;8983;53.156;17.960;2023-07-24T14:59:24;31.30;62.80
17726;DHT22;8983;53.156;17.960;2023-07-24T15:01:52;31.70;61.90
17726;DHT22;8983;53.156;17.960;2023-07-24T15:04:20;31.90;61.10
17726;DHT22;8983;53.156;17.960;2023-07-24T15:06:49;31.80;60.30
17726;DHT22;8983;53.156;17.960;2023-07-24T15:09:17;31.70;60.20
17726;DHT22;8983;53.156;17.960;2023-07-24T15:11:45;31.60;59.70
17726;DHT22;8983;53.156;17.960;2023-07-24T15:14:14;31.60;59.70
17726;DHT22;8983;53.156;17.960;2023-07-24T15:16:43;31.60;59.70
17726;DHT22;8983;53.156;17.960;2023-07-24T15:19:12;31.60;59.80
17726;DHT22;8983;53.156;17.960;2023-07-24T15:21:40;31.40;60.00
17726;DHT22;8983;53.156;17.960;2023-07-24T15:24:08;31.10;60.10
17726;DHT22;8983;53.156;17.960;2023-07-24T15:26:36;30.90;60.60
17726;DHT22;8983;53.156;17.960;2023-07-24T15:29:04;30.60;61.70
17726;DHT22;8983;53.156;17.960;2023-07-24T15:31:32;30.40;61.50
17726;DHT22;8983;53.156;17.960;2023-07-24T15:34:05;30.20;62.10
17726;DHT22;8983;53.156;17.960;2023-07-24T15:36:34;30.10;62.30
17726;DHT22;8983;53.156;17.960;2023-07-24T15:39:03;30.10;62.30
17726;DHT22;8983;53.156;17.960;2023-07-24T15:41:31;30.00;62.20
17726;DHT22;8983;53.156;17.960;2023-07-24T15:43:59;30.00;62.30
17726;DHT22;8983;53.156;17.960;2023-07-24T15:46:28;30.00;62.40